Vronskiy — C4AY2 — position and weather

sailwx.info

Track history (hours):
 
Tides and Currents Weather Stations Pressure Air Temp Water Temp Dewpoint Dewpoint Depression Visibility Wind Speed Wind Dir Waves Ship Positions

Vronskiy

Last reported at 2015-Jul-29 17:30 UTC. Time now 2015-Aug-02 16:22 UTC.
Position N 36°09' W 001°42'.

Length 131 m; draft 5.2 m.

Type: Passenger vessel. MMSI: 210030000.

Date/timePositionNaut miles runAvg speedWind from/ knotsBaromVisibWave heightAir tempDewpointWater temp
2015-Jul-29 17:30N 36°09' W 001°42'1616.3
2015-Jul-29 16:31N 36°05' W 001°23'3316.3
2015-Jul-29 14:28N 35°54' W 000°44'1213.6
2015-Jul-29 13:33N 35°43' W 000°38'1 0.5
2015-Jul-29 11:28N 35°43' W 000°39'0 0.0
2015-Jul-29 10:22N 35°43' W 000°39'13 6.9
2015-Jul-29 08:33N 35°54' W 000°45'1716.6
2015-Jul-29 07:33N 35°59' W 001°04'1616.2
2015-Jul-29 06:33N 36°04' W 001°23'1616.1
2015-Jul-29 05:33N 36°09' W 001°43'1616.1
2015-Jul-29 04:33N 36°14' W 002°01'1616.2
2015-Jul-29 03:33N 36°19' W 002°20'24 2.4
2015-Jul-28 17:34N 35°56' W 002°11'10 0.6
2015-Jul-28 02:27N 36°05' W 002°15'1516.6
2015-Jul-28 01:33N 36°20' W 002°20'21 1.6
2015-Jul-27 12:26N 36°06' W 002°40'1815.2
2015-Jul-27 11:15N 35°49' W 002°45'104 4.8
2015-Jul-26 13:33N 35°46' W 000°38'71 2.1
2015-Jul-25 04:10N 35°36' W 002°04'914.8
2015-Jul-25 03:33N 35°44' W 002°09'5814.4
2015-Jul-24 23:33N 36°40' W 002°27'10 9.9
2015-Jul-24 22:31N 36°50' W 002°28'0 0.0
2015-Jul-24 21:31N 36°50' W 002°28'0 0.0
2015-Jul-24 20:31N 36°50' W 002°28'0 0.0
2015-Jul-24 19:31N 36°50' W 002°28'4 4.5
2015-Jul-24 18:33N 36°46' W 002°27'4515.1
2015-Jul-24 15:33N 36°02' W 002°14'1515.0
2015-Jul-24 14:33N 35°47' W 002°08'1515.0
2015-Jul-24 13:34N 35°33' W 002°03'1515.0
2015-Jul-24 12:32N 35°18' W 001°57'1313.1
2015-Jul-24 11:32N 35°06' W 001°52'62 6.9
2015-Jul-24 02:33N 36°05' W 002°15'61 1.7
2015-Jul-22 15:20N 35°59' W 001°00'1316.4
2015-Jul-22 14:33N 35°55' W 000°45'1312.8
2015-Jul-22 13:31N 35°43' W 000°38'0 0.5
2015-Jul-22 12:30N 35°43' W 000°39'0 0.0
2015-Jul-22 11:30N 35°43' W 000°39'0 0.0
2015-Jul-22 10:30N 35°43' W 000°39'12 3.7
2015-Jul-22 07:13N 35°54' W 000°44'1116.6
2015-Jul-22 06:32N 35°57' W 000°57'1716.6
2015-Jul-22 05:32N 36°02' W 001°17'1616.4
2015-Jul-22 04:32N 36°07' W 001°36'1616.5
2015-Jul-22 03:33N 36°11' W 001°56'1816.6
2015-Jul-22 02:29N 36°18' W 002°16'46 2.1
2015-Jul-21 04:28N 35°33' W 002°03'  
Track history (hours):
 
Tides and Currents Weather Stations Pressure Air Temp Water Temp Dewpoint Dewpoint Depression Visibility Wind Speed Wind Dir Waves Ship Positions

Vronskiy

Last reported at 2015-Jul-29 17:30 UTC. Time now 2015-Aug-02 16:22 UTC.
Position N 36°09' W 001°42'.

Length 131 m; draft 5.2 m.

Type: Passenger vessel. MMSI: 210030000.

Date/timePositionNaut miles runAvg speedWind from/ knotsBaromVisibWave heightAir tempDewpointWater temp
2015-Jul-29 17:30N 36°09' W 001°42'1616.3
2015-Jul-29 16:31N 36°05' W 001°23'3316.3
2015-Jul-29 14:28N 35°54' W 000°44'1213.6
2015-Jul-29 13:33N 35°43' W 000°38'1 0.5
2015-Jul-29 11:28N 35°43' W 000°39'0 0.0
2015-Jul-29 10:22N 35°43' W 000°39'13 6.9
2015-Jul-29 08:33N 35°54' W 000°45'1716.6
2015-Jul-29 07:33N 35°59' W 001°04'1616.2
2015-Jul-29 06:33N 36°04' W 001°23'1616.1
2015-Jul-29 05:33N 36°09' W 001°43'1616.1
2015-Jul-29 04:33N 36°14' W 002°01'1616.2
2015-Jul-29 03:33N 36°19' W 002°20'24 2.4
2015-Jul-28 17:34N 35°56' W 002°11'10 0.6
2015-Jul-28 02:27N 36°05' W 002°15'1516.6
2015-Jul-28 01:33N 36°20' W 002°20'21 1.6
2015-Jul-27 12:26N 36°06' W 002°40'1815.2
2015-Jul-27 11:15N 35°49' W 002°45'104 4.8
2015-Jul-26 13:33N 35°46' W 000°38'71 2.1
2015-Jul-25 04:10N 35°36' W 002°04'914.8
2015-Jul-25 03:33N 35°44' W 002°09'5814.4
2015-Jul-24 23:33N 36°40' W 002°27'10 9.9
2015-Jul-24 22:31N 36°50' W 002°28'0 0.0
2015-Jul-24 21:31N 36°50' W 002°28'0 0.0
2015-Jul-24 20:31N 36°50' W 002°28'0 0.0
2015-Jul-24 19:31N 36°50' W 002°28'4 4.5
2015-Jul-24 18:33N 36°46' W 002°27'4515.1
2015-Jul-24 15:33N 36°02' W 002°14'1515.0
2015-Jul-24 14:33N 35°47' W 002°08'1515.0
2015-Jul-24 13:34N 35°33' W 002°03'1515.0
2015-Jul-24 12:32N 35°18' W 001°57'1313.1
2015-Jul-24 11:32N 35°06' W 001°52'62 6.9
2015-Jul-24 02:33N 36°05' W 002°15'61 1.7
2015-Jul-22 15:20N 35°59' W 001°00'1316.4
2015-Jul-22 14:33N 35°55' W 000°45'1312.8
2015-Jul-22 13:31N 35°43' W 000°38'0 0.5
2015-Jul-22 12:30N 35°43' W 000°39'0 0.0
2015-Jul-22 11:30N 35°43' W 000°39'0 0.0
2015-Jul-22 10:30N 35°43' W 000°39'12 3.7
2015-Jul-22 07:13N 35°54' W 000°44'1116.6
2015-Jul-22 06:32N 35°57' W 000°57'1716.6
2015-Jul-22 05:32N 36°02' W 001°17'1616.4
2015-Jul-22 04:32N 36°07' W 001°36'1616.5
2015-Jul-22 03:33N 36°11' W 001°56'1816.6
2015-Jul-22 02:29N 36°18' W 002°16'46 2.1
2015-Jul-21 04:28N 35°33' W 002°03'  

Dump ship's entire track history